sensor_id;sensor_type;location;lat;lon;timestamp;P1;durP1;ratioP1;P2;durP2;ratioP2
24715;SDS011;12822;50.124;8.678;2022-08-18T00:02:08;10.45;;;8.18;;
24715;SDS011;12822;50.124;8.678;2022-08-18T00:04:36;9.85;;;8.38;;
24715;SDS011;12822;50.124;8.678;2022-08-18T00:07:03;8.75;;;7.85;;
24715;SDS011;12822;50.124;8.678;2022-08-18T00:09:29;12.68;;;8.52;;
24715;SDS011;12822;50.124;8.678;2022-08-18T00:11:55;11.25;;;7.90;;
24715;SDS011;12822;50.124;8.678;2022-08-18T00:14:21;12.45;;;8.55;;
24715;SDS011;12822;50.124;8.678;2022-08-18T00:16:47;12.65;;;8.57;;
24715;SDS011;12822;50.124;8.678;2022-08-18T00:19:14;11.07;;;8.82;;
24715;SDS011;12822;50.124;8.678;2022-08-18T00:21:39;10.45;;;8.73;;
24715;SDS011;12822;50.124;8.678;2022-08-18T00:24:05;13.07;;;8.85;;
24715;SDS011;12822;50.124;8.678;2022-08-18T00:26:31;15.27;;;9.68;;
24715;SDS011;12822;50.124;8.678;2022-08-18T00:28:57;12.68;;;10.05;;
24715;SDS011;12822;50.124;8.678;2022-08-18T00:31:23;14.23;;;9.70;;
24715;SDS011;12822;50.124;8.678;2022-08-18T00:33:50;9.80;;;8.68;;
24715;SDS011;12822;50.124;8.678;2022-08-18T00:36:16;14.95;;;9.73;;
24715;SDS011;12822;50.124;8.678;2022-08-18T00:38:42;16.42;;;10.23;;
24715;SDS011;12822;50.124;8.678;2022-08-18T00:41:08;11.88;;;9.35;;
24715;SDS011;12822;50.124;8.678;2022-08-18T00:43:36;11.30;;;10.00;;
24715;SDS011;12822;50.124;8.678;2022-08-18T00:46:11;16.67;;;10.18;;
24715;SDS011;12822;50.124;8.678;2022-08-18T00:48:37;11.27;;;10.07;;
24715;SDS011;12822;50.124;8.678;2022-08-18T00:51:07;12.02;;;9.95;;
24715;SDS011;12822;50.124;8.678;2022-08-18T00:53:49;13.63;;;10.05;;
24715;SDS011;12822;50.124;8.678;2022-08-18T00:56:21;12.77;;;9.85;;
24715;SDS011;12822;50.124;8.678;2022-08-18T00:58:50;11.38;;;9.75;;
24715;SDS011;12822;50.124;8.678;2022-08-18T01:01:18;12.18;;;10.00;;
24715;SDS011;12822;50.124;8.678;2022-08-18T01:03:47;13.70;;;10.25;;
24715;SDS011;12822;50.124;8.678;2022-08-18T01:06:40;14.85;;;10.38;;
24715;SDS011;12822;50.124;8.678;2022-08-18T01:09:04;16.02;;;9.80;;
24715;SDS011;12822;50.124;8.678;2022-08-18T01:11:30;12.15;;;9.77;;
24715;SDS011;12822;50.124;8.678;2022-08-18T01:13:57;12.27;;;9.75;;
24715;SDS011;12822;50.124;8.678;2022-08-18T01:16:23;14.38;;;9.43;;
24715;SDS011;12822;50.124;8.678;2022-08-18T01:19:08;13.77;;;10.10;;
24715;SDS011;12822;50.124;8.678;2022-08-18T01:21:56;13.27;;;10.80;;
24715;SDS011;12822;50.124;8.678;2022-08-18T01:24:28;14.23;;;9.80;;
24715;SDS011;12822;50.124;8.678;2022-08-18T01:27:14;15.07;;;9.77;;
24715;SDS011;12822;50.124;8.678;2022-08-18T01:29:43;14.82;;;9.50;;
24715;SDS011;12822;50.124;8.678;2022-08-18T01:32:09;11.30;;;9.75;;
24715;SDS011;12822;50.124;8.678;2022-08-18T01:34:36;10.43;;;9.43;;
24715;SDS011;12822;50.124;8.678;2022-08-18T01:37:03;11.77;;;9.23;;
24715;SDS011;12822;50.124;8.678;2022-08-18T01:39:30;13.60;;;9.38;;
24715;SDS011;12822;50.124;8.678;2022-08-18T01:41:56;14.05;;;9.27;;
24715;SDS011;12822;50.124;8.678;2022-08-18T01:44:22;12.43;;;9.70;;
24715;SDS011;12822;50.124;8.678;2022-08-18T01:46:48;14.40;;;9.23;;
24715;SDS011;12822;50.124;8.678;2022-08-18T01:49:16;9.70;;;8.57;;
24715;SDS011;12822;50.124;8.678;2022-08-18T01:51:43;15.73;;;8.90;;
24715;SDS011;12822;50.124;8.678;2022-08-18T01:54:11;10.55;;;8.20;;
24715;SDS011;12822;50.124;8.678;2022-08-18T01:56:37;12.13;;;8.93;;
24715;SDS011;12822;50.124;8.678;2022-08-18T01:59:04;12.32;;;8.70;;
24715;SDS011;12822;50.124;8.678;2022-08-18T02:01:38;11.88;;;8.65;;
24715;SDS011;12822;50.124;8.678;2022-08-18T02:04:05;10.07;;;8.50;;
24715;SDS011;12822;50.124;8.678;2022-08-18T02:06:32;14.32;;;7.72;;
24715;SDS011;12822;50.124;8.678;2022-08-18T02:08:58;12.70;;;8.38;;
24715;SDS011;12822;50.124;8.678;2022-08-18T02:11:24;10.55;;;8.52;;
24715;SDS011;12822;50.124;8.678;2022-08-18T02:13:50;12.52;;;8.25;;
24715;SDS011;12822;50.124;8.678;2022-08-18T02:16:16;14.48;;;9.27;;
24715;SDS011;12822;50.124;8.678;2022-08-18T02:18:42;10.93;;;8.48;;
24715;SDS011;12822;50.124;8.678;2022-08-18T02:21:10;11.15;;;9.07;;
24715;SDS011;12822;50.124;8.678;2022-08-18T02:23:37;12.57;;;8.75;;
24715;SDS011;12822;50.124;8.678;2022-08-18T02:26:07;12.77;;;9.23;;
24715;SDS011;12822;50.124;8.678;2022-08-18T02:28:33;14.48;;;8.40;;
24715;SDS011;12822;50.124;8.678;2022-08-18T02:31:07;12.75;;;8.20;;
24715;SDS011;12822;50.124;8.678;2022-08-18T02:33:33;12.68;;;9.13;;
24715;SDS011;12822;50.124;8.678;2022-08-18T02:35:59;12.63;;;8.43;;
24715;SDS011;12822;50.124;8.678;2022-08-18T02:38:26;10.45;;;7.78;;
24715;SDS011;12822;50.124;8.678;2022-08-18T02:40:53;15.48;;;8.77;;
24715;SDS011;12822;50.124;8.678;2022-08-18T02:43:19;11.15;;;8.35;;
24715;SDS011;12822;50.124;8.678;2022-08-18T02:45:45;8.90;;;7.40;;
24715;SDS011;12822;50.124;8.678;2022-08-18T02:48:11;12.95;;;7.90;;
24715;SDS011;12822;50.124;8.678;2022-08-18T02:50:37;10.13;;;7.78;;
24715;SDS011;12822;50.124;8.678;2022-08-18T02:53:13;9.32;;;7.32;;
24715;SDS011;12822;50.124;8.678;2022-08-18T02:55:49;11.20;;;7.78;;
24715;SDS011;12822;50.124;8.678;2022-08-18T02:58:15;17.88;;;7.63;;
24715;SDS011;12822;50.124;8.678;2022-08-18T03:00:42;11.63;;;7.90;;
24715;SDS011;12822;50.124;8.678;2022-08-18T03:03:08;12.70;;;7.45;;
24715;SDS011;12822;50.124;8.678;2022-08-18T03:05:34;10.90;;;7.30;;
24715;SDS011;12822;50.124;8.678;2022-08-18T03:08:00;12.30;;;7.90;;
24715;SDS011;12822;50.124;8.678;2022-08-18T03:10:26;12.70;;;7.28;;
24715;SDS011;12822;50.124;8.678;2022-08-18T03:12:52;16.75;;;7.70;;
24715;SDS011;12822;50.124;8.678;2022-08-18T03:15:18;9.93;;;7.00;;
24715;SDS011;12822;50.124;8.678;2022-08-18T03:17:44;8.95;;;7.43;;
24715;SDS011;12822;50.124;8.678;2022-08-18T03:20:10;9.45;;;7.40;;
24715;SDS011;12822;50.124;8.678;2022-08-18T03:22:36;11.98;;;6.93;;
24715;SDS011;12822;50.124;8.678;2022-08-18T03:25:02;8.73;;;7.30;;
24715;SDS011;12822;50.124;8.678;2022-08-18T03:27:28;11.13;;;7.63;;
24715;SDS011;12822;50.124;8.678;2022-08-18T03:29:54;13.68;;;7.00;;
24715;SDS011;12822;50.124;8.678;2022-08-18T03:32:21;16.27;;;7.47;;
24715;SDS011;12822;50.124;8.678;2022-08-18T03:34:47;9.20;;;7.13;;
24715;SDS011;12822;50.124;8.678;2022-08-18T03:37:13;10.43;;;7.25;;
24715;SDS011;12822;50.124;8.678;2022-08-18T03:39:42;10.05;;;8.07;;
24715;SDS011;12822;50.124;8.678;2022-08-18T03:42:08;7.63;;;6.63;;
24715;SDS011;12822;50.124;8.678;2022-08-18T03:44:34;12.43;;;7.43;;
24715;SDS011;12822;50.124;8.678;2022-08-18T03:47:01;9.02;;;7.22;;
24715;SDS011;12822;50.124;8.678;2022-08-18T03:49:27;10.15;;;7.30;;
24715;SDS011;12822;50.124;8.678;2022-08-18T03:51:54;11.18;;;7.30;;
24715;SDS011;12822;50.124;8.678;2022-08-18T03:54:20;12.88;;;7.70;;
24715;SDS011;12822;50.124;8.678;2022-08-18T03:56:46;13.88;;;7.78;;
24715;SDS011;12822;50.124;8.678;2022-08-18T03:59:15;13.77;;;7.97;;
24715;SDS011;12822;50.124;8.678;2022-08-18T04:01:42;13.73;;;7.78;;
24715;SDS011;12822;50.124;8.678;2022-08-18T04:04:10;10.60;;;7.18;;
24715;SDS011;12822;50.124;8.678;2022-08-18T04:06:38;9.85;;;7.47;;
24715;SDS011;12822;50.124;8.678;2022-08-18T04:09:06;13.45;;;7.35;;
24715;SDS011;12822;50.124;8.678;2022-08-18T04:11:33;10.55;;;7.97;;
24715;SDS011;12822;50.124;8.678;2022-08-18T04:13:59;9.25;;;7.57;;
24715;SDS011;12822;50.124;8.678;2022-08-18T04:16:26;14.13;;;7.90;;
24715;SDS011;12822;50.124;8.678;2022-08-18T04:18:53;9.63;;;8.10;;
24715;SDS011;12822;50.124;8.678;2022-08-18T04:21:21;12.20;;;7.40;;
24715;SDS011;12822;50.124;8.678;2022-08-18T04:23:48;13.63;;;7.93;;
24715;SDS011;12822;50.124;8.678;2022-08-18T04:26:14;9.90;;;7.45;;
24715;SDS011;12822;50.124;8.678;2022-08-18T04:28:42;9.43;;;7.40;;
24715;SDS011;12822;50.124;8.678;2022-08-18T04:31:09;13.65;;;7.50;;
24715;SDS011;12822;50.124;8.678;2022-08-18T04:33:35;15.40;;;7.40;;
24715;SDS011;12822;50.124;8.678;2022-08-18T04:36:08;12.35;;;7.03;;
24715;SDS011;12822;50.124;8.678;2022-08-18T04:38:34;13.77;;;7.10;;
24715;SDS011;12822;50.124;8.678;2022-08-18T04:41:00;8.60;;;6.75;;
24715;SDS011;12822;50.124;8.678;2022-08-18T04:43:27;10.18;;;6.90;;
24715;SDS011;12822;50.124;8.678;2022-08-18T04:45:54;11.18;;;6.90;;
24715;SDS011;12822;50.124;8.678;2022-08-18T04:48:26;8.23;;;6.68;;
24715;SDS011;12822;50.124;8.678;2022-08-18T04:50:52;11.88;;;7.13;;
24715;SDS011;12822;50.124;8.678;2022-08-18T04:53:18;11.43;;;7.35;;
24715;SDS011;12822;50.124;8.678;2022-08-18T04:56:03;9.98;;;6.80;;
24715;SDS011;12822;50.124;8.678;2022-08-18T04:58:29;12.85;;;6.30;;
24715;SDS011;12822;50.124;8.678;2022-08-18T05:00:56;12.48;;;6.53;;
24715;SDS011;12822;50.124;8.678;2022-08-18T05:03:23;9.15;;;6.45;;
24715;SDS011;12822;50.124;8.678;2022-08-18T05:05:50;9.65;;;6.72;;
24715;SDS011;12822;50.124;8.678;2022-08-18T05:08:16;9.18;;;6.63;;
24715;SDS011;12822;50.124;8.678;2022-08-18T05:10:42;11.27;;;7.07;;
24715;SDS011;12822;50.124;8.678;2022-08-18T05:13:08;9.07;;;7.15;;
24715;SDS011;12822;50.124;8.678;2022-08-18T05:15:34;12.30;;;6.15;;
24715;SDS011;12822;50.124;8.678;2022-08-18T05:18:01;8.57;;;6.53;;
24715;SDS011;12822;50.124;8.678;2022-08-18T05:20:29;12.45;;;7.35;;
24715;SDS011;12822;50.124;8.678;2022-08-18T05:22:55;9.13;;;6.45;;
24715;SDS011;12822;50.124;8.678;2022-08-18T05:25:21;11.25;;;6.97;;
24715;SDS011;12822;50.124;8.678;2022-08-18T05:27:47;9.63;;;7.45;;
24715;SDS011;12822;50.124;8.678;2022-08-18T05:30:13;10.60;;;6.95;;
24715;SDS011;12822;50.124;8.678;2022-08-18T05:32:41;9.35;;;6.82;;
24715;SDS011;12822;50.124;8.678;2022-08-18T05:35:12;10.77;;;7.35;;
24715;SDS011;12822;50.124;8.678;2022-08-18T05:40:06;10.00;;;6.90;;
24715;SDS011;12822;50.124;8.678;2022-08-18T05:42:34;11.18;;;7.18;;
24715;SDS011;12822;50.124;8.678;2022-08-18T05:45:01;10.55;;;6.72;;
24715;SDS011;12822;50.124;8.678;2022-08-18T05:47:28;10.65;;;7.05;;
24715;SDS011;12822;50.124;8.678;2022-08-18T05:49:56;12.98;;;6.50;;
24715;SDS011;12822;50.124;8.678;2022-08-18T05:54:50;14.00;;;6.85;;
24715;SDS011;12822;50.124;8.678;2022-08-18T05:57:41;10.35;;;6.45;;
24715;SDS011;12822;50.124;8.678;2022-08-18T06:00:08;13.05;;;6.68;;
24715;SDS011;12822;50.124;8.678;2022-08-18T06:05:08;8.63;;;6.38;;
24715;SDS011;12822;50.124;8.678;2022-08-18T06:07:57;8.35;;;6.45;;
24715;SDS011;12822;50.124;8.678;2022-08-18T06:10:26;7.53;;;6.65;;
24715;SDS011;12822;50.124;8.678;2022-08-18T06:12:56;8.80;;;6.90;;
24715;SDS011;12822;50.124;8.678;2022-08-18T06:28:25;10.40;;;6.70;;
24715;SDS011;12822;50.124;8.678;2022-08-18T06:30:57;8.40;;;7.00;;
24715;SDS011;12822;50.124;8.678;2022-08-18T06:35:58;10.18;;;6.95;;
24715;SDS011;12822;50.124;8.678;2022-08-18T06:41:13;17.15;;;6.82;;
24715;SDS011;12822;50.124;8.678;2022-08-18T06:43:44;15.05;;;7.22;;
24715;SDS011;12822;50.124;8.678;2022-08-18T06:46:16;14.30;;;7.60;;
24715;SDS011;12822;50.124;8.678;2022-08-18T06:48:44;13.00;;;7.20;;
24715;SDS011;12822;50.124;8.678;2022-08-18T06:51:16;18.17;;;8.75;;
24715;SDS011;12822;50.124;8.678;2022-08-18T06:54:04;11.73;;;7.80;;
24715;SDS011;12822;50.124;8.678;2022-08-18T06:56:46;15.07;;;7.95;;
24715;SDS011;12822;50.124;8.678;2022-08-18T06:59:21;13.60;;;8.00;;
24715;SDS011;12822;50.124;8.678;2022-08-18T07:01:49;13.35;;;8.10;;
24715;SDS011;12822;50.124;8.678;2022-08-18T07:06:56;14.35;;;8.95;;
24715;SDS011;12822;50.124;8.678;2022-08-18T07:09:33;12.10;;;8.38;;
24715;SDS011;12822;50.124;8.678;2022-08-18T07:12:04;16.55;;;9.23;;
24715;SDS011;12822;50.124;8.678;2022-08-18T07:14:30;16.02;;;9.75;;
24715;SDS011;12822;50.124;8.678;2022-08-18T07:17:07;12.88;;;9.38;;
24715;SDS011;12822;50.124;8.678;2022-08-18T07:19:34;16.38;;;9.45;;
24715;SDS011;12822;50.124;8.678;2022-08-18T07:24:30;15.80;;;7.97;;
24715;SDS011;12822;50.124;8.678;2022-08-18T07:29:31;15.70;;;8.57;;
24715;SDS011;12822;50.124;8.678;2022-08-18T07:32:00;14.20;;;8.40;;
24715;SDS011;12822;50.124;8.678;2022-08-18T07:34:28;13.27;;;8.90;;
24715;SDS011;12822;50.124;8.678;2022-08-18T07:39:32;13.35;;;10.32;;
24715;SDS011;12822;50.124;8.678;2022-08-18T07:47:06;15.80;;;10.02;;
24715;SDS011;12822;50.124;8.678;2022-08-18T07:49:36;15.98;;;10.10;;
24715;SDS011;12822;50.124;8.678;2022-08-18T07:52:07;14.35;;;9.23;;
24715;SDS011;12822;50.124;8.678;2022-08-18T07:54:46;18.95;;;10.60;;
24715;SDS011;12822;50.124;8.678;2022-08-18T07:57:26;18.77;;;11.90;;
24715;SDS011;12822;50.124;8.678;2022-08-18T08:00:10;15.65;;;9.52;;
24715;SDS011;12822;50.124;8.678;2022-08-18T08:15:54;15.23;;;10.00;;
24715;SDS011;12822;50.124;8.678;2022-08-18T08:20:52;15.98;;;10.52;;
24715;SDS011;12822;50.124;8.678;2022-08-18T08:26:12;20.65;;;10.38;;
24715;SDS011;12822;50.124;8.678;2022-08-18T08:28:49;22.67;;;11.10;;
24715;SDS011;12822;50.124;8.678;2022-08-18T08:33:44;17.27;;;10.70;;
24715;SDS011;12822;50.124;8.678;2022-08-18T08:36:13;20.67;;;11.40;;
24715;SDS011;12822;50.124;8.678;2022-08-18T08:38:45;18.23;;;10.75;;
24715;SDS011;12822;50.124;8.678;2022-08-18T08:41:14;15.77;;;11.13;;
24715;SDS011;12822;50.124;8.678;2022-08-18T08:43:46;21.35;;;12.30;;
24715;SDS011;12822;50.124;8.678;2022-08-18T08:46:26;15.88;;;11.05;;
24715;SDS011;12822;50.124;8.678;2022-08-18T08:48:56;16.45;;;10.68;;
24715;SDS011;12822;50.124;8.678;2022-08-18T08:54:04;15.18;;;10.55;;
24715;SDS011;12822;50.124;8.678;2022-08-18T08:56:33;18.25;;;12.10;;
24715;SDS011;12822;50.124;8.678;2022-08-18T08:59:06;18.73;;;13.07;;
24715;SDS011;12822;50.124;8.678;2022-08-18T09:01:39;21.58;;;12.93;;
24715;SDS011;12822;50.124;8.678;2022-08-18T09:22:51;21.88;;;15.60;;
24715;SDS011;12822;50.124;8.678;2022-08-18T09:25:29;20.52;;;15.35;;
24715;SDS011;12822;50.124;8.678;2022-08-18T09:28:38;22.60;;;16.20;;
24715;SDS011;12822;50.124;8.678;2022-08-18T09:38:31;32.47;;;18.85;;
24715;SDS011;12822;50.124;8.678;2022-08-18T09:41:19;28.77;;;17.92;;
24715;SDS011;12822;50.124;8.678;2022-08-18T09:44:00;22.27;;;18.27;;
24715;SDS011;12822;50.124;8.678;2022-08-18T09:51:48;22.63;;;18.17;;
24715;SDS011;12822;50.124;8.678;2022-08-18T09:54:19;25.42;;;17.02;;
24715;SDS011;12822;50.124;8.678;2022-08-18T10:01:59;23.52;;;18.42;;
24715;SDS011;12822;50.124;8.678;2022-08-18T10:06:53;27.02;;;18.50;;
24715;SDS011;12822;50.124;8.678;2022-08-18T10:09:40;19.30;;;16.52;;
24715;SDS011;12822;50.124;8.678;2022-08-18T10:19:57;24.05;;;13.60;;
24715;SDS011;12822;50.124;8.678;2022-08-18T10:22:39;20.17;;;14.57;;
24715;SDS011;12822;50.124;8.678;2022-08-18T10:25:07;25.33;;;15.23;;
24715;SDS011;12822;50.124;8.678;2022-08-18T10:30:59;14.32;;;12.70;;
24715;SDS011;12822;50.124;8.678;2022-08-18T10:32:57;25.98;;;17.20;;
24715;SDS011;12822;50.124;8.678;2022-08-18T10:38:15;26.73;;;16.30;;
24715;SDS011;12822;50.124;8.678;2022-08-18T10:43:10;24.17;;;18.30;;
24715;SDS011;12822;50.124;8.678;2022-08-18T10:45:45;21.13;;;16.02;;
24715;SDS011;12822;50.124;8.678;2022-08-18T10:48:25;21.08;;;14.80;;
24715;SDS011;12822;50.124;8.678;2022-08-18T10:56:02;20.55;;;14.57;;
24715;SDS011;12822;50.124;8.678;2022-08-18T10:58:39;20.10;;;15.07;;
24715;SDS011;12822;50.124;8.678;2022-08-18T11:06:19;24.85;;;13.80;;
24715;SDS011;12822;50.124;8.678;2022-08-18T11:08:46;19.35;;;14.77;;
24715;SDS011;12822;50.124;8.678;2022-08-18T11:11:13;21.35;;;14.95;;
24715;SDS011;12822;50.124;8.678;2022-08-18T11:13:49;15.45;;;12.07;;
24715;SDS011;12822;50.124;8.678;2022-08-18T11:16:24;17.98;;;13.73;;
24715;SDS011;12822;50.124;8.678;2022-08-18T11:18:56;18.17;;;14.90;;
24715;SDS011;12822;50.124;8.678;2022-08-18T11:26:30;17.75;;;14.43;;
24715;SDS011;12822;50.124;8.678;2022-08-18T11:28:58;21.70;;;14.18;;
24715;SDS011;12822;50.124;8.678;2022-08-18T11:31:24;19.40;;;14.20;;
24715;SDS011;12822;50.124;8.678;2022-08-18T11:33:51;18.08;;;14.63;;
24715;SDS011;12822;50.124;8.678;2022-08-18T11:36:17;18.08;;;12.20;;
24715;SDS011;12822;50.124;8.678;2022-08-18T11:38:54;15.93;;;12.68;;
24715;SDS011;12822;50.124;8.678;2022-08-18T11:41:24;15.38;;;12.98;;
24715;SDS011;12822;50.124;8.678;2022-08-18T11:43:57;17.35;;;12.18;;
24715;SDS011;12822;50.124;8.678;2022-08-18T11:46:45;16.90;;;12.95;;
24715;SDS011;12822;50.124;8.678;2022-08-18T11:49:13;16.42;;;11.70;;
24715;SDS011;12822;50.124;8.678;2022-08-18T11:51:51;16.92;;;11.13;;
24715;SDS011;12822;50.124;8.678;2022-08-18T11:54:19;19.00;;;11.50;;
24715;SDS011;12822;50.124;8.678;2022-08-18T11:56:49;19.83;;;11.55;;
24715;SDS011;12822;50.124;8.678;2022-08-18T11:59:48;15.95;;;10.88;;
24715;SDS011;12822;50.124;8.678;2022-08-18T12:02:07;13.63;;;10.00;;
24715;SDS011;12822;50.124;8.678;2022-08-18T12:04:37;16.33;;;11.18;;
24715;SDS011;12822;50.124;8.678;2022-08-18T12:12:01;12.70;;;10.20;;
24715;SDS011;12822;50.124;8.678;2022-08-18T12:14:29;11.23;;;10.07;;
24715;SDS011;12822;50.124;8.678;2022-08-18T12:16:56;12.93;;;10.75;;
24715;SDS011;12822;50.124;8.678;2022-08-18T12:19:22;10.70;;;8.30;;
24715;SDS011;12822;50.124;8.678;2022-08-18T12:21:53;14.43;;;11.88;;
24715;SDS011;12822;50.124;8.678;2022-08-18T12:26:45;14.32;;;9.95;;
24715;SDS011;12822;50.124;8.678;2022-08-18T12:29:11;10.75;;;8.73;;
24715;SDS011;12822;50.124;8.678;2022-08-18T12:31:37;12.20;;;9.25;;
24715;SDS011;12822;50.124;8.678;2022-08-18T12:34:03;10.60;;;8.55;;
24715;SDS011;12822;50.124;8.678;2022-08-18T12:36:29;17.98;;;8.88;;
24715;SDS011;12822;50.124;8.678;2022-08-18T12:38:55;12.98;;;10.10;;
24715;SDS011;12822;50.124;8.678;2022-08-18T12:41:22;12.38;;;9.80;;
24715;SDS011;12822;50.124;8.678;2022-08-18T12:43:48;13.63;;;9.93;;
24715;SDS011;12822;50.124;8.678;2022-08-18T12:46:14;15.20;;;9.00;;
24715;SDS011;12822;50.124;8.678;2022-08-18T12:48:40;11.52;;;8.02;;
24715;SDS011;12822;50.124;8.678;2022-08-18T12:51:06;11.95;;;8.05;;
24715;SDS011;12822;50.124;8.678;2022-08-18T12:53:32;17.95;;;9.35;;
24715;SDS011;12822;50.124;8.678;2022-08-18T12:55:58;17.02;;;7.82;;
24715;SDS011;12822;50.124;8.678;2022-08-18T12:58:25;15.65;;;7.00;;
24715;SDS011;12822;50.124;8.678;2022-08-18T13:00:54;11.23;;;8.25;;
24715;SDS011;12822;50.124;8.678;2022-08-18T13:03:20;11.50;;;8.00;;
24715;SDS011;12822;50.124;8.678;2022-08-18T13:05:46;13.98;;;7.53;;
24715;SDS011;12822;50.124;8.678;2022-08-18T13:08:15;8.45;;;7.03;;
24715;SDS011;12822;50.124;8.678;2022-08-18T13:10:42;12.00;;;7.63;;
24715;SDS011;12822;50.124;8.678;2022-08-18T13:13:08;8.45;;;6.88;;
24715;SDS011;12822;50.124;8.678;2022-08-18T13:15:34;8.73;;;7.35;;
24715;SDS011;12822;50.124;8.678;2022-08-18T13:18:00;7.88;;;6.95;;
24715;SDS011;12822;50.124;8.678;2022-08-18T13:20:27;14.07;;;6.72;;
24715;SDS011;12822;50.124;8.678;2022-08-18T13:22:53;8.75;;;7.22;;
24715;SDS011;12822;50.124;8.678;2022-08-18T13:25:20;10.60;;;7.63;;
24715;SDS011;12822;50.124;8.678;2022-08-18T13:27:46;9.52;;;7.53;;
24715;SDS011;12822;50.124;8.678;2022-08-18T13:30:16;9.87;;;7.17;;
24715;SDS011;12822;50.124;8.678;2022-08-18T13:32:42;8.98;;;7.28;;
24715;SDS011;12822;50.124;8.678;2022-08-18T13:35:08;7.80;;;7.07;;
24715;SDS011;12822;50.124;8.678;2022-08-18T13:37:35;13.40;;;7.50;;
24715;SDS011;12822;50.124;8.678;2022-08-18T13:40:01;10.93;;;7.72;;
24715;SDS011;12822;50.124;8.678;2022-08-18T13:42:28;9.88;;;7.97;;
24715;SDS011;12822;50.124;8.678;2022-08-18T13:44:54;12.68;;;7.95;;
24715;SDS011;12822;50.124;8.678;2022-08-18T13:47:23;8.05;;;6.93;;
24715;SDS011;12822;50.124;8.678;2022-08-18T13:49:53;7.53;;;6.85;;
24715;SDS011;12822;50.124;8.678;2022-08-18T13:52:19;7.50;;;6.70;;
24715;SDS011;12822;50.124;8.678;2022-08-18T13:54:45;8.13;;;6.60;;
24715;SDS011;12822;50.124;8.678;2022-08-18T13:57:11;10.63;;;6.13;;
24715;SDS011;12822;50.124;8.678;2022-08-18T13:59:37;7.32;;;5.95;;
24715;SDS011;12822;50.124;8.678;2022-08-18T14:02:05;10.02;;;6.93;;
24715;SDS011;12822;50.124;8.678;2022-08-18T14:04:32;8.88;;;6.60;;
24715;SDS011;12822;50.124;8.678;2022-08-18T14:06:58;6.93;;;6.22;;
24715;SDS011;12822;50.124;8.678;2022-08-18T14:09:25;8.98;;;6.10;;
24715;SDS011;12822;50.124;8.678;2022-08-18T14:11:51;8.00;;;5.78;;
24715;SDS011;12822;50.124;8.678;2022-08-18T14:14:17;7.57;;;5.57;;
24715;SDS011;12822;50.124;8.678;2022-08-18T14:16:44;7.50;;;5.53;;
24715;SDS011;12822;50.124;8.678;2022-08-18T14:19:11;6.47;;;5.88;;
24715;SDS011;12822;50.124;8.678;2022-08-18T14:21:55;7.05;;;5.72;;
24715;SDS011;12822;50.124;8.678;2022-08-18T14:24:40;10.27;;;5.28;;
24715;SDS011;12822;50.124;8.678;2022-08-18T14:27:35;7.20;;;6.07;;
24715;SDS011;12822;50.124;8.678;2022-08-18T14:30:08;9.27;;;6.03;;
24715;SDS011;12822;50.124;8.678;2022-08-18T14:32:34;7.00;;;6.20;;
24715;SDS011;12822;50.124;8.678;2022-08-18T14:35:02;7.65;;;6.22;;
24715;SDS011;12822;50.124;8.678;2022-08-18T14:37:28;6.60;;;5.90;;
24715;SDS011;12822;50.124;8.678;2022-08-18T14:39:55;8.57;;;6.07;;
24715;SDS011;12822;50.124;8.678;2022-08-18T14:42:22;7.57;;;6.57;;
24715;SDS011;12822;50.124;8.678;2022-08-18T14:44:51;9.43;;;6.32;;
24715;SDS011;12822;50.124;8.678;2022-08-18T14:47:26;6.50;;;5.95;;
24715;SDS011;12822;50.124;8.678;2022-08-18T14:49:54;7.00;;;6.30;;
24715;SDS011;12822;50.124;8.678;2022-08-18T14:52:25;8.23;;;6.40;;
24715;SDS011;12822;50.124;8.678;2022-08-18T14:54:53;9.43;;;6.45;;
24715;SDS011;12822;50.124;8.678;2022-08-18T14:57:20;8.48;;;7.07;;
24715;SDS011;12822;50.124;8.678;2022-08-18T14:59:51;9.23;;;6.55;;
24715;SDS011;12822;50.124;8.678;2022-08-18T15:02:18;7.93;;;6.85;;
24715;SDS011;12822;50.124;8.678;2022-08-18T15:04:47;7.90;;;7.10;;
24715;SDS011;12822;50.124;8.678;2022-08-18T15:07:13;8.63;;;7.40;;
24715;SDS011;12822;50.124;8.678;2022-08-18T15:09:39;8.02;;;7.25;;
24715;SDS011;12822;50.124;8.678;2022-08-18T15:12:05;10.13;;;7.38;;
24715;SDS011;12822;50.124;8.678;2022-08-18T15:14:32;8.15;;;7.18;;
24715;SDS011;12822;50.124;8.678;2022-08-18T15:17:03;7.80;;;7.00;;
24715;SDS011;12822;50.124;8.678;2022-08-18T15:19:35;9.50;;;7.40;;
24715;SDS011;12822;50.124;8.678;2022-08-18T15:24:50;11.65;;;8.20;;
24715;SDS011;12822;50.124;8.678;2022-08-18T15:27:36;9.02;;;8.02;;
24715;SDS011;12822;50.124;8.678;2022-08-18T15:30:06;8.77;;;7.87;;
24715;SDS011;12822;50.124;8.678;2022-08-18T15:32:33;9.70;;;8.27;;
24715;SDS011;12822;50.124;8.678;2022-08-18T15:34:59;9.32;;;8.25;;
24715;SDS011;12822;50.124;8.678;2022-08-18T15:37:26;13.60;;;8.18;;
24715;SDS011;12822;50.124;8.678;2022-08-18T15:39:59;10.48;;;8.13;;
24715;SDS011;12822;50.124;8.678;2022-08-18T15:42:26;13.15;;;8.05;;
24715;SDS011;12822;50.124;8.678;2022-08-18T15:44:52;10.52;;;8.05;;
24715;SDS011;12822;50.124;8.678;2022-08-18T15:47:18;11.90;;;9.02;;
24715;SDS011;12822;50.124;8.678;2022-08-18T15:49:45;11.98;;;8.70;;
24715;SDS011;12822;50.124;8.678;2022-08-18T15:52:11;10.88;;;8.07;;
24715;SDS011;12822;50.124;8.678;2022-08-18T15:54:37;11.55;;;9.02;;
24715;SDS011;12822;50.124;8.678;2022-08-18T15:57:03;11.25;;;9.00;;
24715;SDS011;12822;50.124;8.678;2022-08-18T15:59:29;11.45;;;9.25;;
24715;SDS011;12822;50.124;8.678;2022-08-18T16:01:55;12.48;;;8.82;;
24715;SDS011;12822;50.124;8.678;2022-08-18T16:04:21;12.73;;;9.15;;
24715;SDS011;12822;50.124;8.678;2022-08-18T16:06:47;9.02;;;8.13;;
24715;SDS011;12822;50.124;8.678;2022-08-18T16:09:15;9.30;;;8.00;;
24715;SDS011;12822;50.124;8.678;2022-08-18T16:11:41;10.40;;;8.35;;
24715;SDS011;12822;50.124;8.678;2022-08-18T16:14:07;11.98;;;8.80;;
24715;SDS011;12822;50.124;8.678;2022-08-18T16:16:34;11.50;;;9.32;;
24715;SDS011;12822;50.124;8.678;2022-08-18T16:19:00;8.38;;;7.63;;
24715;SDS011;12822;50.124;8.678;2022-08-18T16:21:26;13.77;;;7.68;;
24715;SDS011;12822;50.124;8.678;2022-08-18T16:23:52;9.27;;;7.30;;
24715;SDS011;12822;50.124;8.678;2022-08-18T16:26:20;12.18;;;7.47;;
24715;SDS011;12822;50.124;8.678;2022-08-18T16:28:47;9.85;;;7.18;;
24715;SDS011;12822;50.124;8.678;2022-08-18T16:31:17;9.25;;;6.75;;
24715;SDS011;12822;50.124;8.678;2022-08-18T16:33:48;7.13;;;6.43;;
24715;SDS011;12822;50.124;8.678;2022-08-18T16:36:14;8.93;;;6.10;;
24715;SDS011;12822;50.124;8.678;2022-08-18T16:38:41;6.45;;;5.85;;
24715;SDS011;12822;50.124;8.678;2022-08-18T16:41:09;6.57;;;5.72;;
24715;SDS011;12822;50.124;8.678;2022-08-18T16:43:35;6.05;;;5.43;;
24715;SDS011;12822;50.124;8.678;2022-08-18T16:46:02;6.68;;;5.70;;
24715;SDS011;12822;50.124;8.678;2022-08-18T16:48:29;8.13;;;5.90;;
24715;SDS011;12822;50.124;8.678;2022-08-18T16:50:56;6.85;;;5.82;;
24715;SDS011;12822;50.124;8.678;2022-08-18T16:53:22;8.43;;;5.65;;
24715;SDS011;12822;50.124;8.678;2022-08-18T16:55:48;7.10;;;5.72;;
24715;SDS011;12822;50.124;8.678;2022-08-18T16:58:14;9.27;;;5.88;;
24715;SDS011;12822;50.124;8.678;2022-08-18T17:00:59;7.47;;;6.78;;
24715;SDS011;12822;50.124;8.678;2022-08-18T17:03:44;8.50;;;6.72;;
24715;SDS011;12822;50.124;8.678;2022-08-18T17:06:28;9.52;;;7.80;;
24715;SDS011;12822;50.124;8.678;2022-08-18T17:08:55;8.65;;;7.47;;
24715;SDS011;12822;50.124;8.678;2022-08-18T17:11:21;10.40;;;8.63;;
24715;SDS011;12822;50.124;8.678;2022-08-18T17:13:48;12.57;;;8.75;;